Vilonia, AR (72173)

5:18 PM CDT on May 27, 2017 (GMT -0500)
Lower Ridge Critterville | | Change Station

Elev 371 ft 35.10 °N, 92.35 °W | Updated 35 seconds ago

Partly Cloudy
Partly Cloudy
88.0 °F
Feels Like 99 °F
N
2.2
Wind Variable Wind from SE
Gusts 4.5 mph

Today
High -- | Low -- °F
--% Chance of Precip.
Yesterday
High -- | Low -- °F
Precip. -- in
Pressure 29.82 in
Visibility 10.0 miles
Clouds Few 3900 ft
Scattered Clouds 5500 ft
Heat Index 99 °F
Dew Point 76 °F
Humidity 67%
Rainfall 0.00 in
Snow Depth Not available.
5:57 AM 8:14 PM
Waxing Crescent, 7% visible
METAR KLRF 272058Z AUTO 20008KT 10SM FEW039 SCT055 32/24 A2982 RMK AO2 SLP097 T03150239 55025
Pressure 29.82 in
Visibility 10.0 miles
Clouds Few 3900 ft
Scattered Clouds 5500 ft
Heat Index 99 °F
Dew Point 76 °F
Humidity 67%
Rainfall 0.00 in
Snow Depth Not available.
5:57 AM 8:14 PM
Waxing Crescent, 7% visible
METAR KLRF 272058Z AUTO 20008KT 10SM FEW039 SCT055 32/24 A2982 RMK AO2 SLP097 T03150239 55025

Get Severe Weather Alerts

Thanks for signing up!

Be on the lookout for a verification email in your inbox.

You'll start receiving the daily forecast at 6 AM.

×

10-Day Weather Forecast

Almanac

Astronomy

May. 27, 2017 Rise Set
Actual Time
Civil Twilight
Nautical Twilight
Astronomical Twilight
Moon
Length of Visible Light
Length of Day
Tomorrow will be .
, % of the Moon is Illuminated

Today's Extremes

State Highs State Lows

Community

WunderPhotos

Category 6

Welcome to Category 6. This is the collective home for Weather Underground's featured writeups by Dr. Jeff Masters (right), Bob Henson (left), Chris Burt, and other regular contributors.

Nearby

Air Quality

  Air Quality AQ Index Pollutant
Not available.

Snow Depth

Station Depth Elevation

Earthquake Activity

City Distance Mag. Time & Date
Minimum magnitude displayed is 2.5.

Coastal Water Temperatures

Place Temperature

Stations

Nearby Weather Stations

Station Location Temp. Windchill Dew Point Humidity Wind Precip. Elev Updated Type
                   

Watches & Warnings

There are currently no watches in effect.